createdAt,value
2018-06-24T00:02:04.108Z,15.30
2018-06-24T00:04:32.320Z,15.20
2018-06-24T00:07:00.564Z,15.10
2018-06-24T00:09:29.653Z,15.10
2018-06-24T00:11:58.023Z,15.00
2018-06-24T00:14:26.148Z,14.80
2018-06-24T00:16:54.489Z,14.80
2018-06-24T00:19:22.856Z,14.80
2018-06-24T00:21:51.159Z,14.80
2018-06-24T00:24:19.351Z,14.80
2018-06-24T00:26:47.510Z,14.80
2018-06-24T00:29:15.743Z,14.70
2018-06-24T00:31:43.897Z,14.80
2018-06-24T00:36:40.767Z,14.70
2018-06-24T00:39:09.545Z,14.60
2018-06-24T00:41:38.183Z,14.50
2018-06-24T00:44:06.479Z,14.50
2018-06-24T00:46:34.918Z,14.50
2018-06-24T00:49:03.148Z,14.50
2018-06-24T00:51:31.286Z,14.50
2018-06-24T00:53:59.516Z,14.40
2018-06-24T00:56:27.679Z,14.50
2018-06-24T01:01:23.968Z,14.40
2018-06-24T01:03:52.197Z,14.30
2018-06-24T01:06:20.418Z,14.20
2018-06-24T01:08:48.721Z,14.20
2018-06-24T01:11:17.003Z,14.10
2018-06-24T01:13:45.411Z,14.10
2018-06-24T01:16:13.716Z,14.00
2018-06-24T01:18:41.948Z,14.00
2018-06-24T01:21:10.274Z,14.00
2018-06-24T01:23:38.620Z,14.10
2018-06-24T01:26:06.976Z,14.10
2018-06-24T01:28:35.164Z,14.10
2018-06-24T01:31:03.381Z,14.10
2018-06-24T01:33:31.612Z,14.00
2018-06-24T01:35:59.830Z,13.80
2018-06-24T01:38:28.108Z,13.80
2018-06-24T01:40:56.292Z,13.70
2018-06-24T01:43:24.475Z,13.90
2018-06-24T01:45:52.631Z,13.90
2018-06-24T01:48:20.826Z,14.00
2018-06-24T01:53:17.050Z,14.10
2018-06-24T01:55:45.287Z,14.20
2018-06-24T01:58:13.572Z,14.30
2018-06-24T02:00:41.720Z,14.30
2018-06-24T02:03:09.912Z,14.40
2018-06-24T02:05:38.200Z,14.20
2018-06-24T02:08:06.431Z,14.20
2018-06-24T02:10:34.616Z,14.20
2018-06-24T02:13:02.716Z,14.10
2018-06-24T02:15:30.820Z,14.10
2018-06-24T02:17:59.084Z,14.20
2018-06-24T02:20:27.348Z,14.20
2018-06-24T02:22:55.632Z,14.10
2018-06-24T02:25:23.808Z,14.10
2018-06-24T02:27:51.923Z,14.00
2018-06-24T02:30:20.153Z,13.90
2018-06-24T02:32:48.339Z,13.90
2018-06-24T02:37:44.527Z,13.80
2018-06-24T02:40:12.681Z,13.70
2018-06-24T02:42:40.865Z,13.70
2018-06-24T02:45:09.099Z,13.70
2018-06-24T02:47:37.231Z,13.80
2018-06-24T02:50:05.488Z,13.80
2018-06-24T02:52:33.712Z,13.70
2018-06-24T02:55:01.935Z,13.70
2018-06-24T02:57:30.132Z,13.60
2018-06-24T02:59:58.303Z,13.60
2018-06-24T03:02:26.487Z,13.50
2018-06-24T03:04:54.652Z,13.50
2018-06-24T03:07:22.861Z,13.50
2018-06-24T03:09:51.089Z,13.40
2018-06-24T03:12:19.259Z,13.40
2018-06-24T03:14:47.437Z,13.40
2018-06-24T03:17:15.680Z,13.40
2018-06-24T03:19:43.941Z,13.40
2018-06-24T03:22:12.046Z,13.50
2018-06-24T03:24:40.208Z,13.50
2018-06-24T03:27:08.435Z,13.50
2018-06-24T03:29:36.735Z,13.50
2018-06-24T03:32:05.131Z,13.50
2018-06-24T03:34:33.264Z,13.50
2018-06-24T03:37:01.508Z,13.40
2018-06-24T03:39:29.682Z,13.40
2018-06-24T03:41:57.834Z,13.30
2018-06-24T03:44:25.971Z,13.30
2018-06-24T03:46:54.172Z,13.40
2018-06-24T03:49:22.444Z,13.50
2018-06-24T03:51:50.667Z,13.50
2018-06-24T03:54:18.804Z,13.60
2018-06-24T03:56:46.962Z,13.70
2018-06-24T03:59:15.127Z,13.60
2018-06-24T04:01:43.388Z,13.60
2018-06-24T04:06:39.561Z,13.70
2018-06-24T04:09:08.247Z,13.70
2018-06-24T04:11:36.704Z,13.70
2018-06-24T04:14:04.975Z,13.70
2018-06-24T04:16:33.248Z,13.70
2018-06-24T04:19:01.436Z,13.80
2018-06-24T04:21:29.668Z,13.90
2018-06-24T04:28:53.994Z,14.20
2018-06-24T04:33:50.280Z,14.30
2018-06-24T04:36:18.416Z,14.30
2018-06-24T04:38:46.581Z,14.20
2018-06-24T04:41:14.734Z,14.20
2018-06-24T04:43:42.957Z,14.30
2018-06-24T04:46:11.218Z,14.40
2018-06-24T04:48:39.463Z,14.40
2018-06-24T04:53:36.675Z,14.50
2018-06-24T04:56:05.047Z,14.60
2018-06-24T04:58:33.297Z,14.60
2018-06-24T05:01:01.484Z,14.60
2018-06-24T05:03:29.639Z,14.50
2018-06-24T05:05:57.818Z,14.50
2018-06-24T05:08:26.234Z,14.50
2018-06-24T05:10:54.443Z,14.50
2018-06-24T05:15:50.931Z,14.70
2018-06-24T05:18:19.142Z,14.70
2018-06-24T05:20:47.291Z,14.70
2018-06-24T05:23:15.512Z,14.70
2018-06-24T05:28:11.797Z,14.60
2018-06-24T05:30:39.907Z,14.70
2018-06-24T05:33:08.133Z,14.80
2018-06-24T05:35:36.236Z,14.80
2018-06-24T05:38:04.483Z,14.70
2018-06-24T05:40:32.595Z,14.50
2018-06-24T05:43:01.659Z,14.30
2018-06-24T05:45:29.959Z,14.20
2018-06-24T05:47:58.182Z,14.10
2018-06-24T05:50:26.301Z,14.30
2018-06-24T05:52:54.411Z,14.40
2018-06-24T05:55:22.572Z,14.60
2018-06-24T05:57:50.844Z,14.70
2018-06-24T06:00:19.115Z,14.80
2018-06-24T06:02:47.324Z,14.90
2018-06-24T06:05:15.505Z,14.80
2018-06-24T06:07:43.787Z,14.90
2018-06-24T06:10:12.164Z,15.00
2018-06-24T06:12:40.397Z,15.00
2018-06-24T06:20:06.450Z,14.70
2018-06-24T06:22:34.699Z,14.60
2018-06-24T06:25:03.020Z,14.70
2018-06-24T06:27:31.283Z,14.70
2018-06-24T06:29:59.517Z,14.70
2018-06-24T06:32:27.746Z,15.00
2018-06-24T06:34:56.032Z,15.00
2018-06-24T06:37:24.497Z,15.10
2018-06-24T06:39:52.831Z,15.30
2018-06-24T06:42:21.104Z,15.40
2018-06-24T06:44:49.343Z,15.40
2018-06-24T06:47:17.528Z,15.50
2018-06-24T06:49:45.774Z,15.30
2018-06-24T06:52:13.957Z,15.40
2018-06-24T06:54:42.223Z,15.20
2018-06-24T06:57:10.422Z,15.30
2018-06-24T06:59:39.728Z,15.50
2018-06-24T07:02:07.982Z,15.70
2018-06-24T07:04:36.355Z,15.80
2018-06-24T07:07:04.707Z,15.80
2018-06-24T07:09:32.967Z,15.80
2018-06-24T07:12:01.104Z,15.70
2018-06-24T07:14:29.361Z,15.80
2018-06-24T07:16:57.666Z,15.80
2018-06-24T07:19:25.947Z,15.80
2018-06-24T07:21:54.262Z,15.90
2018-06-24T07:24:22.518Z,15.90
2018-06-24T07:26:50.659Z,15.90
2018-06-24T07:29:18.942Z,15.70
2018-06-24T07:31:47.217Z,15.80
2018-06-24T07:34:15.727Z,15.80
2018-06-24T07:36:44.150Z,15.90
2018-06-24T07:39:12.361Z,16.00
2018-06-24T07:41:40.557Z,16.10
2018-06-24T07:44:08.847Z,16.20
2018-06-24T07:46:37.018Z,16.40
2018-06-24T07:49:05.237Z,16.50
2018-06-24T07:51:33.430Z,16.40
2018-06-24T07:54:01.564Z,16.20
2018-06-24T07:56:29.808Z,16.40
2018-06-24T07:58:58.024Z,16.50
2018-06-24T08:01:26.361Z,16.60
2018-06-24T08:03:54.659Z,16.60
2018-06-24T08:06:22.900Z,16.70
2018-06-24T08:08:51.134Z,16.80
2018-06-24T08:11:19.433Z,17.00
2018-06-24T08:13:47.603Z,17.10
2018-06-24T08:16:15.791Z,16.70
2018-06-24T08:18:44.055Z,16.70
2018-06-24T08:21:12.210Z,16.70
2018-06-24T08:23:40.394Z,16.90
2018-06-24T08:26:08.564Z,17.10
2018-06-24T08:31:04.986Z,17.10
2018-06-24T08:33:33.209Z,17.00
2018-06-24T08:36:01.388Z,17.00
2018-06-24T08:38:29.604Z,17.10
2018-06-24T08:40:57.919Z,17.20
2018-06-24T08:43:26.136Z,17.30
2018-06-24T08:45:54.479Z,17.20
2018-06-24T08:48:22.704Z,17.10
2018-06-24T08:50:50.886Z,16.90
2018-06-24T08:53:19.060Z,17.00
2018-06-24T08:55:47.313Z,17.00
2018-06-24T08:58:15.528Z,17.10
2018-06-24T09:03:11.897Z,17.40
2018-06-24T09:05:40.139Z,17.50
2018-06-24T09:08:08.484Z,17.50
2018-06-24T09:10:36.761Z,17.40
2018-06-24T09:13:05.142Z,17.60
2018-06-24T09:15:33.351Z,17.90
2018-06-24T09:18:01.573Z,18.00
2018-06-24T09:20:29.771Z,17.70
2018-06-24T09:22:57.942Z,17.70
2018-06-24T09:25:26.180Z,17.80
2018-06-24T09:27:54.375Z,18.20
2018-06-24T09:30:22.591Z,18.10
2018-06-24T09:32:50.782Z,18.00
2018-06-24T09:35:19.007Z,18.20
2018-06-24T09:37:47.233Z,18.40
2018-06-24T09:40:15.488Z,18.40
2018-06-24T09:42:43.655Z,18.50
2018-06-24T09:45:11.836Z,18.60
2018-06-24T09:50:08.263Z,18.70
2018-06-24T09:52:36.411Z,18.70
2018-06-24T09:55:04.886Z,18.70
2018-06-24T09:57:33.342Z,18.50
2018-06-24T10:00:01.556Z,18.40
2018-06-24T10:02:29.699Z,18.50
2018-06-24T10:04:57.983Z,18.40
2018-06-24T10:07:26.176Z,18.30
2018-06-24T10:12:15.917Z,18.40
2018-06-24T10:14:44.112Z,18.40
2018-06-24T10:17:12.368Z,18.40
2018-06-24T10:19:40.661Z,18.50
2018-06-24T10:22:08.883Z,18.40
2018-06-24T10:24:37.061Z,18.30
2018-06-24T10:27:05.268Z,18.10
2018-06-24T10:29:33.630Z,18.40
2018-06-24T10:32:01.857Z,18.30
2018-06-24T10:34:30.105Z,18.20
2018-06-24T10:36:58.332Z,18.40
2018-06-24T10:39:26.512Z,18.50
2018-06-24T10:41:54.754Z,18.40
2018-06-24T10:44:22.951Z,18.50
2018-06-24T10:46:51.242Z,18.60
2018-06-24T10:49:19.431Z,18.50
2018-06-24T10:51:47.649Z,18.30
2018-06-24T10:54:15.833Z,18.40
2018-06-24T10:56:44.032Z,18.50
2018-06-24T10:59:12.306Z,18.70
2018-06-24T11:01:40.684Z,18.80
2018-06-24T11:04:08.976Z,18.80
2018-06-24T11:06:37.175Z,18.80
2018-06-24T11:09:08.593Z,18.70
2018-06-24T11:11:36.831Z,18.70
2018-06-24T11:14:05.508Z,18.90
2018-06-24T11:16:34.406Z,18.90
2018-06-24T11:19:02.658Z,19.00
2018-06-24T11:21:31.421Z,19.00
2018-06-24T11:23:59.642Z,18.90
2018-06-24T11:26:28.026Z,19.00
2018-06-24T11:28:56.211Z,19.00
2018-06-24T11:31:24.451Z,19.00
2018-06-24T11:33:53.337Z,18.80
2018-06-24T11:36:21.561Z,18.70
2018-06-24T11:38:49.824Z,18.50
2018-06-24T11:41:18.306Z,18.60
2018-06-24T11:43:46.513Z,18.50
2018-06-24T11:46:14.827Z,18.50
2018-06-24T11:48:43.114Z,18.50
2018-06-24T11:51:11.372Z,18.30
2018-06-24T11:53:39.552Z,18.60
2018-06-24T11:56:07.768Z,18.80
2018-06-24T12:01:04.170Z,18.90
2018-06-24T12:03:32.435Z,19.10
2018-06-24T12:06:00.697Z,19.30
2018-06-24T12:08:28.953Z,19.40
2018-06-24T12:10:57.123Z,19.30
2018-06-24T12:13:25.500Z,19.50
2018-06-24T12:15:53.761Z,19.50
2018-06-24T12:18:22.032Z,19.40
2018-06-24T12:20:50.281Z,19.20
2018-06-24T12:25:46.748Z,18.90
2018-06-24T12:28:14.983Z,19.10
2018-06-24T12:30:43.198Z,19.40
2018-06-24T12:33:11.470Z,19.60
2018-06-24T12:35:39.719Z,19.60
2018-06-24T12:38:08.010Z,19.30
2018-06-24T12:43:04.738Z,19.30
2018-06-24T12:45:33.525Z,19.30
2018-06-24T12:48:01.751Z,19.40
2018-06-24T12:50:30.044Z,19.50
2018-06-24T12:52:58.352Z,19.20
2018-06-24T12:55:26.609Z,19.00
2018-06-24T12:57:55.160Z,19.00
2018-06-24T13:00:24.441Z,19.10
2018-06-24T13:02:52.057Z,19.20
2018-06-24T13:05:20.312Z,19.20
2018-06-24T13:10:16.805Z,19.40
2018-06-24T13:12:45.026Z,19.50
2018-06-24T13:15:13.371Z,19.70
2018-06-24T13:17:41.629Z,19.90
2018-06-24T13:20:09.777Z,19.90
2018-06-24T13:22:38.039Z,19.90
2018-06-24T13:25:06.252Z,20.00
2018-06-24T13:27:34.460Z,20.20
2018-06-24T13:30:02.851Z,20.50
2018-06-24T13:32:31.118Z,20.50
2018-06-24T13:34:59.397Z,20.70
2018-06-24T13:37:27.613Z,20.80
2018-06-24T13:39:55.861Z,20.80
2018-06-24T13:42:24.181Z,20.00
2018-06-24T13:44:52.460Z,19.90
2018-06-24T13:47:20.880Z,20.20
2018-06-24T13:49:49.199Z,20.20
2018-06-24T13:52:17.448Z,20.40
2018-06-24T13:54:45.817Z,20.40
2018-06-24T13:57:14.097Z,20.30
2018-06-24T13:59:42.293Z,20.40
2018-06-24T14:02:10.575Z,20.40
2018-06-24T14:04:38.741Z,20.40
2018-06-24T14:09:35.145Z,19.90
2018-06-24T14:12:03.409Z,19.70
2018-06-24T14:14:31.587Z,19.60
2018-06-24T14:16:59.845Z,19.70
2018-06-24T14:19:28.119Z,20.00
2018-06-24T14:21:56.400Z,20.20
2018-06-24T14:24:24.746Z,20.20
2018-06-24T14:26:52.934Z,20.30
2018-06-24T14:29:21.197Z,20.30
2018-06-24T14:34:17.615Z,20.30
2018-06-24T14:36:45.912Z,20.20
2018-06-24T14:39:14.157Z,20.30
2018-06-24T14:41:42.360Z,20.20
2018-06-24T14:44:10.994Z,20.20
2018-06-24T14:46:39.259Z,20.30
2018-06-24T14:49:07.572Z,20.30
2018-06-24T14:51:35.769Z,20.20
2018-06-24T14:54:04.040Z,20.00
2018-06-24T14:59:00.449Z,19.90
2018-06-24T15:01:28.759Z,19.80
2018-06-24T15:03:56.957Z,19.80
2018-06-24T15:11:21.570Z,20.10
2018-06-24T15:13:49.820Z,20.10
2018-06-24T15:16:18.237Z,19.90
2018-06-24T15:18:46.468Z,20.00
2018-06-24T15:21:14.729Z,20.20
2018-06-24T15:23:42.941Z,20.20
2018-06-24T15:26:11.281Z,20.10
2018-06-24T15:28:39.567Z,19.90
2018-06-24T15:31:07.819Z,20.00
2018-06-24T15:33:35.991Z,20.20
2018-06-24T15:36:04.256Z,20.40
2018-06-24T15:38:32.561Z,20.50
2018-06-24T15:41:00.880Z,20.40
2018-06-24T15:43:29.130Z,20.30
2018-06-24T15:45:57.398Z,20.20
2018-06-24T15:50:53.755Z,20.20
2018-06-24T15:55:50.135Z,20.10
2018-06-24T15:58:18.384Z,19.90
2018-06-24T16:00:46.665Z,20.00
2018-06-24T16:03:14.893Z,20.00
2018-06-24T16:05:43.172Z,19.90
2018-06-24T16:08:11.398Z,19.90
2018-06-24T16:10:39.752Z,20.00
2018-06-24T16:13:08.102Z,20.10
2018-06-24T16:15:36.416Z,20.10
2018-06-24T16:18:04.677Z,20.20
2018-06-24T16:20:33.121Z,20.20
2018-06-24T16:23:01.253Z,20.10
2018-06-24T16:25:29.496Z,19.90
2018-06-24T16:27:57.672Z,20.00
2018-06-24T16:32:54.051Z,19.80
2018-06-24T16:35:22.354Z,19.80
2018-06-24T16:37:50.666Z,19.90
2018-06-24T16:42:47.964Z,19.90
2018-06-24T16:45:16.219Z,19.90
2018-06-24T16:50:13.312Z,19.70
2018-06-24T16:52:41.544Z,19.70
2018-06-24T16:55:09.856Z,19.80
2018-06-24T16:57:38.135Z,19.80
2018-06-24T17:00:06.694Z,19.70
2018-06-24T17:02:34.895Z,19.70
2018-06-24T17:05:03.189Z,19.70
2018-06-24T17:07:31.593Z,19.80
2018-06-24T17:10:00.055Z,19.90
2018-06-24T17:12:28.376Z,20.00
2018-06-24T17:14:57.775Z,20.00
2018-06-24T17:19:54.367Z,19.90
2018-06-24T17:22:22.509Z,19.90
2018-06-24T17:24:50.828Z,19.80
2018-06-24T17:27:19.032Z,19.80
2018-06-24T17:29:47.304Z,19.80
2018-06-24T17:32:15.457Z,19.70
2018-06-24T17:34:43.783Z,19.70
2018-06-24T17:37:12.073Z,19.80
2018-06-24T17:39:40.499Z,19.90
2018-06-24T17:42:08.782Z,19.90
2018-06-24T17:44:36.992Z,19.90
2018-06-24T17:47:05.544Z,19.80
2018-06-24T17:52:01.962Z,19.90
2018-06-24T17:54:30.344Z,19.80
2018-06-24T17:56:58.624Z,19.70
2018-06-24T18:01:54.896Z,19.80
2018-06-24T18:04:23.241Z,19.70
2018-06-24T18:06:52.201Z,19.60
2018-06-24T18:09:20.488Z,19.50
2018-06-24T18:11:48.846Z,19.50
2018-06-24T18:14:17.091Z,19.50
2018-06-24T18:16:46.503Z,19.60
2018-06-24T18:19:15.728Z,19.60
2018-06-24T18:21:46.067Z,19.60
2018-06-24T18:24:15.817Z,19.70
2018-06-24T18:26:45.315Z,19.60
2018-06-24T18:29:13.588Z,19.60
2018-06-24T18:31:41.813Z,19.50
2018-06-24T18:34:10.094Z,19.40
2018-06-24T18:36:38.398Z,19.40
2018-06-24T18:39:08.476Z,19.40
2018-06-24T18:41:37.199Z,19.40
2018-06-24T18:44:05.551Z,19.50
2018-06-24T18:46:33.767Z,19.50
2018-06-24T18:51:30.517Z,19.50
2018-06-24T18:53:58.814Z,19.40
2018-06-24T18:56:27.095Z,19.40
2018-06-24T18:58:55.344Z,19.40
2018-06-24T19:01:23.629Z,19.40
2018-06-24T19:03:51.924Z,19.30
2018-06-24T19:06:20.325Z,19.30
2018-06-24T19:08:48.667Z,19.30
2018-06-24T19:11:17.110Z,19.30
2018-06-24T19:13:45.336Z,19.30
2018-06-24T19:16:13.758Z,19.30
2018-06-24T19:18:42.029Z,19.30
2018-06-24T19:21:10.360Z,19.20
2018-06-24T19:23:38.687Z,19.20
2018-06-24T19:26:07.190Z,19.10
2018-06-24T19:28:35.524Z,19.00
2018-06-24T19:31:04.052Z,18.90
2018-06-24T19:33:32.253Z,19.00
2018-06-24T19:36:03.584Z,18.90
2018-06-24T19:38:31.833Z,18.90
2018-06-24T19:41:00.259Z,19.00
2018-06-24T19:43:28.517Z,19.00
2018-06-24T19:45:56.788Z,19.00
2018-06-24T19:48:25.144Z,19.00
2018-06-24T19:50:53.446Z,18.90
2018-06-24T19:53:21.962Z,18.90
2018-06-24T19:55:50.248Z,18.90
2018-06-24T19:58:18.532Z,18.90
2018-06-24T20:00:46.923Z,18.90
2018-06-24T20:05:43.441Z,19.00
2018-06-24T20:08:11.796Z,19.00
2018-06-24T20:10:40.080Z,18.80
2018-06-24T20:13:08.519Z,18.70
2018-06-24T20:15:36.700Z,18.70
2018-06-24T20:18:05.140Z,18.70
2018-06-24T20:23:03.149Z,18.70
2018-06-24T20:25:33.081Z,18.70
2018-06-24T20:28:01.499Z,18.70
2018-06-24T20:30:30.004Z,18.70
2018-06-24T20:32:58.360Z,18.70
2018-06-24T20:35:26.569Z,18.70
2018-06-24T20:40:23.315Z,18.70
2018-06-24T20:45:19.796Z,18.80
2018-06-24T20:47:49.469Z,18.90
2018-06-24T20:50:17.851Z,18.80
2018-06-24T20:52:46.142Z,18.70
2018-06-24T20:55:14.386Z,18.60
2018-06-24T20:57:42.714Z,18.60
2018-06-24T21:00:11.070Z,18.60
2018-06-24T21:02:39.377Z,18.50
2018-06-24T21:05:07.732Z,18.50
2018-06-24T21:07:36.054Z,18.50
2018-06-24T21:10:04.465Z,18.50
2018-06-24T21:12:33.082Z,18.50
2018-06-24T21:15:01.766Z,18.50
2018-06-24T21:17:30.516Z,18.50
2018-06-24T21:19:58.723Z,18.50
2018-06-24T21:22:27.069Z,18.40
2018-06-24T21:27:23.422Z,18.20
2018-06-24T21:29:51.690Z,18.20
2018-06-24T21:32:20.043Z,18.30
2018-06-24T21:34:48.344Z,18.30
2018-06-24T21:37:16.720Z,18.40
2018-06-24T21:39:48.063Z,18.30
2018-06-24T21:42:16.296Z,18.20
2018-06-24T21:44:44.571Z,18.20
2018-06-24T21:47:12.968Z,18.20
2018-06-24T21:49:41.244Z,18.10
2018-06-24T21:52:09.539Z,18.10
2018-06-24T21:54:40.098Z,18.10
2018-06-24T21:57:08.359Z,18.20
2018-06-24T21:59:36.704Z,18.10
2018-06-24T22:04:33.769Z,18.20
2018-06-24T22:07:02.238Z,18.20
2018-06-24T22:09:30.561Z,18.20
2018-06-24T22:11:59.021Z,18.20
2018-06-24T22:14:27.278Z,18.10
2018-06-24T22:16:55.530Z,18.00
2018-06-24T22:19:23.729Z,17.90
2018-06-24T22:24:20.129Z,17.90
2018-06-24T22:26:48.460Z,17.90
2018-06-24T22:29:16.662Z,17.90
2018-06-24T22:31:44.864Z,17.90
2018-06-24T22:34:13.234Z,17.80
2018-06-24T22:36:41.579Z,17.80
2018-06-24T22:39:11.854Z,17.80
2018-06-24T22:41:40.351Z,17.70
2018-06-24T22:44:09.029Z,17.80
2018-06-24T22:46:37.256Z,17.80
2018-06-24T22:49:06.002Z,17.80
2018-06-24T22:54:02.498Z,17.90
2018-06-24T22:56:30.857Z,17.80
2018-06-24T22:59:15.855Z,17.80
2018-06-24T23:01:44.440Z,17.80
2018-06-24T23:04:12.687Z,17.70
2018-06-24T23:06:40.897Z,17.70
2018-06-24T23:09:09.270Z,17.70
2018-06-24T23:11:37.768Z,17.70
2018-06-24T23:14:06.093Z,17.70
2018-06-24T23:16:34.377Z,17.60
2018-06-24T23:19:02.652Z,17.50
2018-06-24T23:21:31.076Z,17.50
2018-06-24T23:26:27.435Z,17.40
2018-06-24T23:28:55.757Z,17.40
2018-06-24T23:31:24.693Z,17.40
2018-06-24T23:36:21.181Z,17.30
2018-06-24T23:38:49.388Z,17.20
2018-06-24T23:41:17.645Z,17.20
2018-06-24T23:43:45.949Z,17.20
2018-06-24T23:51:10.279Z,17.30
2018-06-24T23:53:38.436Z,17.30
2018-06-24T23:56:06.690Z,17.30
2018-06-24T23:58:34.887Z,17.10
